sensor_id;sensor_type;location;lat;lon;timestamp;P1;durP1;ratioP1;P2;durP2;ratioP2
22223;SDS011;11281;52.194;21.006;2023-06-22T00:02:13;25.67;;;17.58;;
22223;SDS011;11281;52.194;21.006;2023-06-22T00:06:15;27.45;;;18.40;;
22223;SDS011;11281;52.194;21.006;2023-06-22T00:10:16;26.58;;;19.25;;
22223;SDS011;11281;52.194;21.006;2023-06-22T00:14:18;26.75;;;18.00;;
22223;SDS011;11281;52.194;21.006;2023-06-22T00:18:20;24.65;;;16.77;;
22223;SDS011;11281;52.194;21.006;2023-06-22T00:22:21;21.83;;;16.58;;
22223;SDS011;11281;52.194;21.006;2023-06-22T00:26:29;25.75;;;17.88;;
22223;SDS011;11281;52.194;21.006;2023-06-22T00:30:31;27.17;;;17.15;;
22223;SDS011;11281;52.194;21.006;2023-06-22T00:34:33;24.58;;;18.25;;
22223;SDS011;11281;52.194;21.006;2023-06-22T00:38:35;25.95;;;17.63;;
22223;SDS011;11281;52.194;21.006;2023-06-22T00:42:41;29.20;;;18.52;;
22223;SDS011;11281;52.194;21.006;2023-06-22T00:46:43;26.30;;;18.85;;
22223;SDS011;11281;52.194;21.006;2023-06-22T00:50:45;27.17;;;19.65;;
22223;SDS011;11281;52.194;21.006;2023-06-22T00:54:49;29.65;;;19.40;;
22223;SDS011;11281;52.194;21.006;2023-06-22T00:58:52;29.80;;;19.30;;
22223;SDS011;11281;52.194;21.006;2023-06-22T01:02:54;26.42;;;18.27;;
22223;SDS011;11281;52.194;21.006;2023-06-22T01:07:05;26.75;;;17.98;;
22223;SDS011;11281;52.194;21.006;2023-06-22T01:11:41;24.33;;;17.35;;
22223;SDS011;11281;52.194;21.006;2023-06-22T01:15:49;31.42;;;18.20;;
22223;SDS011;11281;52.194;21.006;2023-06-22T01:28:47;28.40;;;19.45;;
22223;SDS011;11281;52.194;21.006;2023-06-22T01:32:51;28.52;;;17.92;;
22223;SDS011;11281;52.194;21.006;2023-06-22T01:36:55;29.13;;;18.98;;
22223;SDS011;11281;52.194;21.006;2023-06-22T01:40:57;28.85;;;18.23;;
22223;SDS011;11281;52.194;21.006;2023-06-22T01:44:59;25.45;;;18.10;;
22223;SDS011;11281;52.194;21.006;2023-06-22T01:49:03;32.05;;;19.13;;
22223;SDS011;11281;52.194;21.006;2023-06-22T01:53:07;30.20;;;19.20;;
22223;SDS011;11281;52.194;21.006;2023-06-22T01:57:08;28.45;;;18.55;;
22223;SDS011;11281;52.194;21.006;2023-06-22T02:01:12;31.42;;;21.75;;
22223;SDS011;11281;52.194;21.006;2023-06-22T02:05:17;31.27;;;19.38;;
22223;SDS011;11281;52.194;21.006;2023-06-22T02:09:20;29.50;;;19.55;;
22223;SDS011;11281;52.194;21.006;2023-06-22T02:13:24;30.52;;;19.67;;
22223;SDS011;11281;52.194;21.006;2023-06-22T02:17:27;32.78;;;21.63;;
22223;SDS011;11281;52.194;21.006;2023-06-22T02:21:29;33.10;;;20.88;;
22223;SDS011;11281;52.194;21.006;2023-06-22T02:25:32;31.77;;;20.65;;
22223;SDS011;11281;52.194;21.006;2023-06-22T02:29:35;30.80;;;21.23;;
22223;SDS011;11281;52.194;21.006;2023-06-22T02:33:37;34.60;;;21.92;;
22223;SDS011;11281;52.194;21.006;2023-06-22T02:37:39;30.42;;;20.70;;
22223;SDS011;11281;52.194;21.006;2023-06-22T02:41:42;36.22;;;22.77;;
22223;SDS011;11281;52.194;21.006;2023-06-22T02:45:43;35.67;;;22.83;;
22223;SDS011;11281;52.194;21.006;2023-06-22T02:49:45;32.13;;;22.48;;
22223;SDS011;11281;52.194;21.006;2023-06-22T02:53:47;36.83;;;24.10;;
22223;SDS011;11281;52.194;21.006;2023-06-22T02:57:48;39.95;;;24.05;;
22223;SDS011;11281;52.194;21.006;2023-06-22T03:01:53;36.80;;;24.05;;
22223;SDS011;11281;52.194;21.006;2023-06-22T03:05:55;42.80;;;25.98;;
22223;SDS011;11281;52.194;21.006;2023-06-22T03:09:57;44.20;;;26.73;;
22223;SDS011;11281;52.194;21.006;2023-06-22T03:13:59;41.35;;;25.15;;
22223;SDS011;11281;52.194;21.006;2023-06-22T03:18:03;38.67;;;24.58;;
22223;SDS011;11281;52.194;21.006;2023-06-22T03:22:05;38.60;;;24.17;;
22223;SDS011;11281;52.194;21.006;2023-06-22T03:26:08;41.53;;;24.67;;
22223;SDS011;11281;52.194;21.006;2023-06-22T03:30:11;39.10;;;24.65;;
22223;SDS011;11281;52.194;21.006;2023-06-22T03:34:13;41.38;;;25.48;;
22223;SDS011;11281;52.194;21.006;2023-06-22T03:38:16;38.25;;;23.80;;
22223;SDS011;11281;52.194;21.006;2023-06-22T03:42:18;37.10;;;24.45;;
22223;SDS011;11281;52.194;21.006;2023-06-22T03:46:20;36.88;;;23.40;;
22223;SDS011;11281;52.194;21.006;2023-06-22T03:50:21;40.20;;;22.38;;
22223;SDS011;11281;52.194;21.006;2023-06-22T03:54:23;33.90;;;21.92;;
22223;SDS011;11281;52.194;21.006;2023-06-22T03:58:25;35.60;;;23.23;;
22223;SDS011;11281;52.194;21.006;2023-06-22T04:02:26;36.72;;;23.10;;
22223;SDS011;11281;52.194;21.006;2023-06-22T04:06:28;35.42;;;21.80;;
22223;SDS011;11281;52.194;21.006;2023-06-22T04:10:30;35.53;;;21.15;;
22223;SDS011;11281;52.194;21.006;2023-06-22T04:14:32;36.70;;;22.77;;
22223;SDS011;11281;52.194;21.006;2023-06-22T04:18:34;37.38;;;22.92;;
22223;SDS011;11281;52.194;21.006;2023-06-22T04:22:36;30.40;;;20.55;;
22223;SDS011;11281;52.194;21.006;2023-06-22T04:26:38;34.33;;;20.65;;
22223;SDS011;11281;52.194;21.006;2023-06-22T04:30:42;33.78;;;20.73;;
22223;SDS011;11281;52.194;21.006;2023-06-22T04:34:47;31.25;;;20.40;;
22223;SDS011;11281;52.194;21.006;2023-06-22T04:38:49;29.23;;;18.95;;
22223;SDS011;11281;52.194;21.006;2023-06-22T04:42:53;30.77;;;19.45;;
22223;SDS011;11281;52.194;21.006;2023-06-22T04:47:00;32.28;;;19.58;;
22223;SDS011;11281;52.194;21.006;2023-06-22T04:51:04;32.40;;;19.85;;
22223;SDS011;11281;52.194;21.006;2023-06-22T04:55:06;30.50;;;19.73;;
22223;SDS011;11281;52.194;21.006;2023-06-22T04:59:08;34.72;;;20.98;;
22223;SDS011;11281;52.194;21.006;2023-06-22T05:03:13;35.70;;;20.75;;
22223;SDS011;11281;52.194;21.006;2023-06-22T05:07:19;33.63;;;20.50;;
22223;SDS011;11281;52.194;21.006;2023-06-22T05:11:21;31.98;;;20.08;;
22223;SDS011;11281;52.194;21.006;2023-06-22T05:15:24;26.63;;;18.15;;
22223;SDS011;11281;52.194;21.006;2023-06-22T05:19:28;30.23;;;19.50;;
22223;SDS011;11281;52.194;21.006;2023-06-22T05:23:34;30.65;;;17.85;;
22223;SDS011;11281;52.194;21.006;2023-06-22T05:27:35;27.63;;;17.88;;
22223;SDS011;11281;52.194;21.006;2023-06-22T05:31:40;29.02;;;17.88;;
22223;SDS011;11281;52.194;21.006;2023-06-22T05:35:42;26.17;;;15.95;;
22223;SDS011;11281;52.194;21.006;2023-06-22T05:39:44;29.80;;;17.70;;
22223;SDS011;11281;52.194;21.006;2023-06-22T05:43:45;26.95;;;17.00;;
22223;SDS011;11281;52.194;21.006;2023-06-22T05:47:47;26.27;;;16.67;;
22223;SDS011;11281;52.194;21.006;2023-06-22T05:51:49;25.33;;;15.25;;
22223;SDS011;11281;52.194;21.006;2023-06-22T05:55:51;23.98;;;15.35;;
22223;SDS011;11281;52.194;21.006;2023-06-22T05:59:52;26.17;;;15.32;;
22223;SDS011;11281;52.194;21.006;2023-06-22T06:03:55;25.92;;;15.23;;
22223;SDS011;11281;52.194;21.006;2023-06-22T06:07:57;27.73;;;16.33;;
22223;SDS011;11281;52.194;21.006;2023-06-22T06:11:59;26.20;;;15.48;;
22223;SDS011;11281;52.194;21.006;2023-06-22T06:16:03;25.63;;;13.95;;
22223;SDS011;11281;52.194;21.006;2023-06-22T06:20:05;27.80;;;14.98;;
22223;SDS011;11281;52.194;21.006;2023-06-22T06:24:09;25.38;;;15.38;;
22223;SDS011;11281;52.194;21.006;2023-06-22T06:28:11;20.45;;;13.18;;
22223;SDS011;11281;52.194;21.006;2023-06-22T06:32:13;18.70;;;12.57;;
22223;SDS011;11281;52.194;21.006;2023-06-22T06:36:14;20.67;;;14.65;;
22223;SDS011;11281;52.194;21.006;2023-06-22T06:40:17;18.45;;;12.80;;
22223;SDS011;11281;52.194;21.006;2023-06-22T06:44:19;17.05;;;11.88;;
22223;SDS011;11281;52.194;21.006;2023-06-22T06:48:22;14.60;;;10.07;;
22223;SDS011;11281;52.194;21.006;2023-06-22T06:52:24;17.02;;;10.82;;
22223;SDS011;11281;52.194;21.006;2023-06-22T06:56:26;13.05;;;9.30;;
22223;SDS011;11281;52.194;21.006;2023-06-22T07:00:28;11.63;;;8.18;;
22223;SDS011;11281;52.194;21.006;2023-06-22T07:04:30;15.45;;;9.73;;
22223;SDS011;11281;52.194;21.006;2023-06-22T07:08:32;12.80;;;9.20;;
22223;SDS011;11281;52.194;21.006;2023-06-22T07:12:34;11.20;;;8.27;;
22223;SDS011;11281;52.194;21.006;2023-06-22T07:16:35;12.73;;;7.63;;
22223;SDS011;11281;52.194;21.006;2023-06-22T07:20:37;8.05;;;6.47;;
22223;SDS011;11281;52.194;21.006;2023-06-22T07:24:40;8.63;;;6.97;;
22223;SDS011;11281;52.194;21.006;2023-06-22T07:28:41;12.05;;;7.13;;
22223;SDS011;11281;52.194;21.006;2023-06-22T07:32:43;7.55;;;6.13;;
22223;SDS011;11281;52.194;21.006;2023-06-22T07:36:45;7.00;;;5.18;;
22223;SDS011;11281;52.194;21.006;2023-06-22T07:40:47;6.97;;;4.78;;
22223;SDS011;11281;52.194;21.006;2023-06-22T07:44:49;6.03;;;4.68;;
22223;SDS011;11281;52.194;21.006;2023-06-22T07:48:51;6.43;;;4.40;;
22223;SDS011;11281;52.194;21.006;2023-06-22T07:52:53;4.53;;;4.00;;
22223;SDS011;11281;52.194;21.006;2023-06-22T07:56:54;9.65;;;5.03;;
22223;SDS011;11281;52.194;21.006;2023-06-22T08:00:56;5.40;;;4.78;;
22223;SDS011;11281;52.194;21.006;2023-06-22T08:04:57;8.00;;;5.03;;
22223;SDS011;11281;52.194;21.006;2023-06-22T08:08:59;5.85;;;4.13;;
22223;SDS011;11281;52.194;21.006;2023-06-22T08:13:00;5.35;;;4.30;;
22223;SDS011;11281;52.194;21.006;2023-06-22T08:17:02;5.75;;;4.18;;
22223;SDS011;11281;52.194;21.006;2023-06-22T08:21:04;7.18;;;4.18;;
22223;SDS011;11281;52.194;21.006;2023-06-22T08:25:06;5.28;;;3.85;;
22223;SDS011;11281;52.194;21.006;2023-06-22T08:29:09;6.57;;;4.05;;
22223;SDS011;11281;52.194;21.006;2023-06-22T08:33:10;4.88;;;3.70;;
22223;SDS011;11281;52.194;21.006;2023-06-22T08:37:12;5.15;;;3.67;;
22223;SDS011;11281;52.194;21.006;2023-06-22T08:41:14;4.32;;;3.10;;
22223;SDS011;11281;52.194;21.006;2023-06-22T08:45:16;4.93;;;3.85;;
22223;SDS011;11281;52.194;21.006;2023-06-22T08:49:18;4.97;;;3.15;;
22223;SDS011;11281;52.194;21.006;2023-06-22T08:53:20;4.57;;;3.45;;
22223;SDS011;11281;52.194;21.006;2023-06-22T08:57:22;4.93;;;3.40;;
22223;SDS011;11281;52.194;21.006;2023-06-22T09:01:23;3.50;;;3.20;;
22223;SDS011;11281;52.194;21.006;2023-06-22T09:05:25;4.40;;;3.20;;
22223;SDS011;11281;52.194;21.006;2023-06-22T09:09:26;5.00;;;3.05;;
22223;SDS011;11281;52.194;21.006;2023-06-22T09:13:29;3.92;;;3.20;;
22223;SDS011;11281;52.194;21.006;2023-06-22T09:17:32;3.70;;;2.78;;
22223;SDS011;11281;52.194;21.006;2023-06-22T09:21:34;4.20;;;3.00;;
22223;SDS011;11281;52.194;21.006;2023-06-22T09:25:35;4.13;;;3.20;;
22223;SDS011;11281;52.194;21.006;2023-06-22T09:29:37;5.35;;;3.47;;
22223;SDS011;11281;52.194;21.006;2023-06-22T09:33:39;4.30;;;3.17;;
22223;SDS011;11281;52.194;21.006;2023-06-22T09:37:41;5.22;;;2.80;;
22223;SDS011;11281;52.194;21.006;2023-06-22T09:41:43;4.85;;;3.08;;
22223;SDS011;11281;52.194;21.006;2023-06-22T09:45:45;3.13;;;2.80;;
22223;SDS011;11281;52.194;21.006;2023-06-22T09:49:47;3.80;;;2.63;;
22223;SDS011;11281;52.194;21.006;2023-06-22T09:53:52;5.35;;;3.00;;
22223;SDS011;11281;52.194;21.006;2023-06-22T09:57:56;5.50;;;2.80;;
22223;SDS011;11281;52.194;21.006;2023-06-22T10:01:58;4.15;;;3.08;;
22223;SDS011;11281;52.194;21.006;2023-06-22T10:06:00;4.70;;;3.13;;
22223;SDS011;11281;52.194;21.006;2023-06-22T10:10:01;4.85;;;3.28;;
22223;SDS011;11281;52.194;21.006;2023-06-22T10:14:03;4.22;;;3.08;;
22223;SDS011;11281;52.194;21.006;2023-06-22T10:18:04;4.03;;;2.78;;
22223;SDS011;11281;52.194;21.006;2023-06-22T10:22:06;5.38;;;3.35;;
22223;SDS011;11281;52.194;21.006;2023-06-22T10:26:07;3.95;;;3.50;;
22223;SDS011;11281;52.194;21.006;2023-06-22T10:30:10;4.22;;;3.22;;
22223;SDS011;11281;52.194;21.006;2023-06-22T10:34:13;7.68;;;3.60;;
22223;SDS011;11281;52.194;21.006;2023-06-22T10:38:15;5.00;;;3.20;;
22223;SDS011;11281;52.194;21.006;2023-06-22T10:42:17;4.25;;;3.00;;
22223;SDS011;11281;52.194;21.006;2023-06-22T10:46:18;4.45;;;3.53;;
22223;SDS011;11281;52.194;21.006;2023-06-22T10:50:20;4.15;;;3.30;;
22223;SDS011;11281;52.194;21.006;2023-06-22T10:54:22;4.47;;;3.45;;
22223;SDS011;11281;52.194;21.006;2023-06-22T10:58:23;4.78;;;3.67;;
22223;SDS011;11281;52.194;21.006;2023-06-22T11:02:25;3.33;;;3.03;;
22223;SDS011;11281;52.194;21.006;2023-06-22T11:06:28;4.05;;;3.30;;
22223;SDS011;11281;52.194;21.006;2023-06-22T11:10:30;5.78;;;3.53;;
22223;SDS011;11281;52.194;21.006;2023-06-22T11:14:32;4.28;;;3.63;;
22223;SDS011;11281;52.194;21.006;2023-06-22T11:18:36;3.40;;;2.75;;
22223;SDS011;11281;52.194;21.006;2023-06-22T11:22:38;5.10;;;3.30;;
22223;SDS011;11281;52.194;21.006;2023-06-22T11:26:43;5.50;;;3.88;;
22223;SDS011;11281;52.194;21.006;2023-06-22T11:30:45;4.20;;;3.30;;
22223;SDS011;11281;52.194;21.006;2023-06-22T11:34:47;5.25;;;3.70;;
22223;SDS011;11281;52.194;21.006;2023-06-22T11:38:48;6.55;;;3.83;;
22223;SDS011;11281;52.194;21.006;2023-06-22T11:42:50;5.50;;;3.70;;
22223;SDS011;11281;52.194;21.006;2023-06-22T11:46:52;5.75;;;3.47;;
22223;SDS011;11281;52.194;21.006;2023-06-22T11:50:54;4.32;;;3.78;;
22223;SDS011;11281;52.194;21.006;2023-06-22T11:54:56;4.88;;;3.90;;
22223;SDS011;11281;52.194;21.006;2023-06-22T11:58:57;5.20;;;3.85;;
22223;SDS011;11281;52.194;21.006;2023-06-22T12:03:00;4.38;;;3.63;;
22223;SDS011;11281;52.194;21.006;2023-06-22T12:07:02;5.60;;;4.00;;
22223;SDS011;11281;52.194;21.006;2023-06-22T12:11:03;5.20;;;4.60;;
22223;SDS011;11281;52.194;21.006;2023-06-22T12:15:05;6.53;;;4.20;;
22223;SDS011;11281;52.194;21.006;2023-06-22T12:19:07;8.95;;;4.18;;
22223;SDS011;11281;52.194;21.006;2023-06-22T12:23:09;5.55;;;4.07;;
22223;SDS011;11281;52.194;21.006;2023-06-22T12:27:11;6.63;;;4.55;;
22223;SDS011;11281;52.194;21.006;2023-06-22T12:31:13;4.68;;;4.15;;
22223;SDS011;11281;52.194;21.006;2023-06-22T12:35:15;5.72;;;4.40;;
22223;SDS011;11281;52.194;21.006;2023-06-22T12:39:17;4.85;;;4.35;;
22223;SDS011;11281;52.194;21.006;2023-06-22T12:43:19;7.63;;;3.97;;
22223;SDS011;11281;52.194;21.006;2023-06-22T12:47:20;5.50;;;4.07;;
22223;SDS011;11281;52.194;21.006;2023-06-22T12:51:22;6.55;;;3.97;;
22223;SDS011;11281;52.194;21.006;2023-06-22T12:55:24;5.15;;;3.90;;
22223;SDS011;11281;52.194;21.006;2023-06-22T12:59:26;5.80;;;4.20;;
22223;SDS011;11281;52.194;21.006;2023-06-22T13:03:28;5.47;;;3.90;;
22223;SDS011;11281;52.194;21.006;2023-06-22T13:07:29;4.40;;;3.75;;
22223;SDS011;11281;52.194;21.006;2023-06-22T13:11:31;4.38;;;3.72;;
22223;SDS011;11281;52.194;21.006;2023-06-22T13:15:33;4.88;;;3.88;;
22223;SDS011;11281;52.194;21.006;2023-06-22T13:19:35;4.72;;;3.58;;
22223;SDS011;11281;52.194;21.006;2023-06-22T13:23:36;4.55;;;3.50;;
22223;SDS011;11281;52.194;21.006;2023-06-22T13:27:39;7.53;;;3.60;;
22223;SDS011;11281;52.194;21.006;2023-06-22T13:31:42;6.00;;;3.25;;
22223;SDS011;11281;52.194;21.006;2023-06-22T13:35:44;4.38;;;3.20;;
22223;SDS011;11281;52.194;21.006;2023-06-22T13:39:45;4.18;;;3.45;;
22223;SDS011;11281;52.194;21.006;2023-06-22T13:43:46;4.38;;;3.90;;
22223;SDS011;11281;52.194;21.006;2023-06-22T13:47:48;4.78;;;3.00;;
22223;SDS011;11281;52.194;21.006;2023-06-22T13:51:50;5.63;;;4.70;;
22223;SDS011;11281;52.194;21.006;2023-06-22T13:55:51;6.88;;;3.92;;
22223;SDS011;11281;52.194;21.006;2023-06-22T13:59:53;5.18;;;3.70;;
22223;SDS011;11281;52.194;21.006;2023-06-22T14:03:55;6.38;;;3.55;;
22223;SDS011;11281;52.194;21.006;2023-06-22T14:07:57;6.95;;;3.60;;
22223;SDS011;11281;52.194;21.006;2023-06-22T14:12:02;4.53;;;4.03;;
22223;SDS011;11281;52.194;21.006;2023-06-22T14:16:06;5.13;;;3.58;;
22223;SDS011;11281;52.194;21.006;2023-06-22T14:20:08;5.60;;;3.85;;
22223;SDS011;11281;52.194;21.006;2023-06-22T14:24:10;5.90;;;4.13;;
22223;SDS011;11281;52.194;21.006;2023-06-22T14:28:11;4.82;;;3.35;;
22223;SDS011;11281;52.194;21.006;2023-06-22T14:32:14;4.68;;;3.53;;
22223;SDS011;11281;52.194;21.006;2023-06-22T14:36:16;5.57;;;3.80;;
22223;SDS011;11281;52.194;21.006;2023-06-22T14:40:20;5.43;;;3.38;;
22223;SDS011;11281;52.194;21.006;2023-06-22T14:44:22;5.68;;;3.67;;
22223;SDS011;11281;52.194;21.006;2023-06-22T14:48:23;4.70;;;4.03;;
22223;SDS011;11281;52.194;21.006;2023-06-22T14:52:25;4.10;;;3.30;;
22223;SDS011;11281;52.194;21.006;2023-06-22T14:56:28;4.53;;;4.05;;
22223;SDS011;11281;52.194;21.006;2023-06-22T15:00:30;5.45;;;3.65;;
22223;SDS011;11281;52.194;21.006;2023-06-22T15:04:32;5.95;;;3.65;;
22223;SDS011;11281;52.194;21.006;2023-06-22T15:08:41;4.63;;;3.70;;
22223;SDS011;11281;52.194;21.006;2023-06-22T15:12:43;4.63;;;3.60;;
22223;SDS011;11281;52.194;21.006;2023-06-22T15:16:45;6.70;;;3.85;;
22223;SDS011;11281;52.194;21.006;2023-06-22T15:20:46;5.45;;;3.83;;
22223;SDS011;11281;52.194;21.006;2023-06-22T15:24:48;5.28;;;4.38;;
22223;SDS011;11281;52.194;21.006;2023-06-22T15:28:53;4.80;;;4.25;;
22223;SDS011;11281;52.194;21.006;2023-06-22T15:32:56;6.78;;;4.30;;
22223;SDS011;11281;52.194;21.006;2023-06-22T15:36:59;8.23;;;4.03;;
22223;SDS011;11281;52.194;21.006;2023-06-22T15:41:00;5.85;;;4.32;;
22223;SDS011;11281;52.194;21.006;2023-06-22T15:45:03;5.68;;;4.13;;
22223;SDS011;11281;52.194;21.006;2023-06-22T15:49:07;5.22;;;3.92;;
22223;SDS011;11281;52.194;21.006;2023-06-22T15:53:09;6.00;;;3.88;;
22223;SDS011;11281;52.194;21.006;2023-06-22T15:57:10;4.78;;;3.97;;
22223;SDS011;11281;52.194;21.006;2023-06-22T16:01:13;5.10;;;4.05;;
22223;SDS011;11281;52.194;21.006;2023-06-22T16:05:15;6.68;;;4.40;;
22223;SDS011;11281;52.194;21.006;2023-06-22T16:09:17;6.53;;;4.63;;
22223;SDS011;11281;52.194;21.006;2023-06-22T16:13:19;5.95;;;4.30;;
22223;SDS011;11281;52.194;21.006;2023-06-22T16:17:21;5.90;;;4.28;;
22223;SDS011;11281;52.194;21.006;2023-06-22T16:21:22;5.35;;;4.03;;
22223;SDS011;11281;52.194;21.006;2023-06-22T16:25:25;6.00;;;4.00;;
22223;SDS011;11281;52.194;21.006;2023-06-22T16:29:28;7.40;;;4.47;;
22223;SDS011;11281;52.194;21.006;2023-06-22T16:33:30;7.03;;;4.20;;
22223;SDS011;11281;52.194;21.006;2023-06-22T16:37:32;4.97;;;4.20;;
22223;SDS011;11281;52.194;21.006;2023-06-22T16:41:33;4.60;;;3.85;;
22223;SDS011;11281;52.194;21.006;2023-06-22T16:45:35;6.05;;;3.83;;
22223;SDS011;11281;52.194;21.006;2023-06-22T16:49:36;4.72;;;3.92;;
22223;SDS011;11281;52.194;21.006;2023-06-22T16:53:39;5.68;;;4.30;;
22223;SDS011;11281;52.194;21.006;2023-06-22T16:57:41;6.18;;;3.95;;
22223;SDS011;11281;52.194;21.006;2023-06-22T17:01:48;5.05;;;4.28;;
22223;SDS011;11281;52.194;21.006;2023-06-22T17:05:55;6.25;;;3.60;;
22223;SDS011;11281;52.194;21.006;2023-06-22T17:09:58;4.82;;;3.63;;
22223;SDS011;11281;52.194;21.006;2023-06-22T17:14:00;5.43;;;3.55;;
22223;SDS011;11281;52.194;21.006;2023-06-22T17:18:02;4.25;;;3.50;;
22223;SDS011;11281;52.194;21.006;2023-06-22T17:22:08;6.75;;;3.80;;
22223;SDS011;11281;52.194;21.006;2023-06-22T17:26:09;6.88;;;3.50;;
22223;SDS011;11281;52.194;21.006;2023-06-22T17:30:12;3.95;;;3.25;;
22223;SDS011;11281;52.194;21.006;2023-06-22T17:34:17;4.88;;;3.15;;
22223;SDS011;11281;52.194;21.006;2023-06-22T17:38:22;5.82;;;3.60;;
22223;SDS011;11281;52.194;21.006;2023-06-22T17:42:24;5.07;;;3.50;;
22223;SDS011;11281;52.194;21.006;2023-06-22T17:46:27;5.25;;;3.30;;
22223;SDS011;11281;52.194;21.006;2023-06-22T17:50:39;7.20;;;3.15;;
22223;SDS011;11281;52.194;21.006;2023-06-22T17:54:43;4.82;;;3.25;;
22223;SDS011;11281;52.194;21.006;2023-06-22T17:58:51;7.03;;;4.00;;
22223;SDS011;11281;52.194;21.006;2023-06-22T18:02:55;6.30;;;3.70;;
22223;SDS011;11281;52.194;21.006;2023-06-22T18:06:56;5.22;;;3.33;;
22223;SDS011;11281;52.194;21.006;2023-06-22T18:10:58;6.38;;;3.42;;
22223;SDS011;11281;52.194;21.006;2023-06-22T18:15:06;6.93;;;3.97;;
22223;SDS011;11281;52.194;21.006;2023-06-22T18:19:09;4.72;;;3.55;;
22223;SDS011;11281;52.194;21.006;2023-06-22T18:23:11;5.53;;;3.78;;
22223;SDS011;11281;52.194;21.006;2023-06-22T18:27:13;4.65;;;3.60;;
22223;SDS011;11281;52.194;21.006;2023-06-22T18:31:16;5.80;;;4.07;;
22223;SDS011;11281;52.194;21.006;2023-06-22T18:35:20;7.05;;;4.60;;
22223;SDS011;11281;52.194;21.006;2023-06-22T18:39:22;7.20;;;4.38;;
22223;SDS011;11281;52.194;21.006;2023-06-22T18:43:24;5.15;;;3.83;;
22223;SDS011;11281;52.194;21.006;2023-06-22T18:47:27;7.55;;;4.80;;
22223;SDS011;11281;52.194;21.006;2023-06-22T18:51:30;7.93;;;4.88;;
22223;SDS011;11281;52.194;21.006;2023-06-22T18:56:09;9.65;;;5.20;;
22223;SDS011;11281;52.194;21.006;2023-06-22T19:00:12;7.28;;;4.97;;
22223;SDS011;11281;52.194;21.006;2023-06-22T19:04:16;6.63;;;4.53;;
22223;SDS011;11281;52.194;21.006;2023-06-22T19:08:20;7.38;;;4.80;;
22223;SDS011;11281;52.194;21.006;2023-06-22T19:12:24;6.95;;;5.20;;
22223;SDS011;11281;52.194;21.006;2023-06-22T19:16:29;8.75;;;4.97;;
22223;SDS011;11281;52.194;21.006;2023-06-22T19:20:31;6.70;;;4.72;;
22223;SDS011;11281;52.194;21.006;2023-06-22T19:24:47;6.63;;;5.15;;
22223;SDS011;11281;52.194;21.006;2023-06-22T19:28:52;9.48;;;5.28;;
22223;SDS011;11281;52.194;21.006;2023-06-22T19:32:55;11.55;;;5.53;;
22223;SDS011;11281;52.194;21.006;2023-06-22T19:36:58;8.38;;;5.30;;
22223;SDS011;11281;52.194;21.006;2023-06-22T19:41:00;9.38;;;5.57;;
22223;SDS011;11281;52.194;21.006;2023-06-22T19:45:02;9.70;;;5.68;;
22223;SDS011;11281;52.194;21.006;2023-06-22T19:49:04;8.43;;;5.45;;
22223;SDS011;11281;52.194;21.006;2023-06-22T19:53:07;11.45;;;5.50;;
22223;SDS011;11281;52.194;21.006;2023-06-22T19:57:13;8.43;;;5.50;;
22223;SDS011;11281;52.194;21.006;2023-06-22T20:01:15;10.75;;;6.15;;
22223;SDS011;11281;52.194;21.006;2023-06-22T20:05:19;7.82;;;5.32;;
22223;SDS011;11281;52.194;21.006;2023-06-22T20:09:22;9.57;;;5.80;;
22223;SDS011;11281;52.194;21.006;2023-06-22T20:13:24;13.70;;;5.88;;
22223;SDS011;11281;52.194;21.006;2023-06-22T20:17:26;11.02;;;5.10;;
22223;SDS011;11281;52.194;21.006;2023-06-22T20:21:27;9.55;;;5.95;;
22223;SDS011;11281;52.194;21.006;2023-06-22T20:25:37;12.45;;;6.40;;
22223;SDS011;11281;52.194;21.006;2023-06-22T20:29:41;8.85;;;5.25;;
22223;SDS011;11281;52.194;21.006;2023-06-22T20:33:43;9.93;;;6.15;;
22223;SDS011;11281;52.194;21.006;2023-06-22T20:37:45;14.30;;;6.18;;
22223;SDS011;11281;52.194;21.006;2023-06-22T20:41:48;10.55;;;6.40;;
22223;SDS011;11281;52.194;21.006;2023-06-22T20:45:53;9.30;;;5.85;;
22223;SDS011;11281;52.194;21.006;2023-06-22T20:49:55;8.68;;;5.47;;
22223;SDS011;11281;52.194;21.006;2023-06-22T20:54:00;10.82;;;6.57;;
22223;SDS011;11281;52.194;21.006;2023-06-22T20:58:04;11.05;;;6.15;;
22223;SDS011;11281;52.194;21.006;2023-06-22T21:02:08;13.02;;;6.25;;
22223;SDS011;11281;52.194;21.006;2023-06-22T21:06:09;10.10;;;5.35;;
22223;SDS011;11281;52.194;21.006;2023-06-22T21:10:13;8.85;;;6.30;;
22223;SDS011;11281;52.194;21.006;2023-06-22T21:14:15;8.45;;;5.72;;
22223;SDS011;11281;52.194;21.006;2023-06-22T21:18:17;11.30;;;5.82;;
22223;SDS011;11281;52.194;21.006;2023-06-22T21:22:18;9.90;;;5.82;;
22223;SDS011;11281;52.194;21.006;2023-06-22T21:26:21;6.75;;;5.38;;
22223;SDS011;11281;52.194;21.006;2023-06-22T21:30:22;8.38;;;5.20;;
22223;SDS011;11281;52.194;21.006;2023-06-22T21:34:25;7.95;;;4.70;;
22223;SDS011;11281;52.194;21.006;2023-06-22T21:38:26;6.53;;;4.18;;
22223;SDS011;11281;52.194;21.006;2023-06-22T21:42:28;8.52;;;4.70;;
22223;SDS011;11281;52.194;21.006;2023-06-22T21:46:29;6.72;;;4.30;;
22223;SDS011;11281;52.194;21.006;2023-06-22T21:50:31;5.32;;;4.10;;
22223;SDS011;11281;52.194;21.006;2023-06-22T21:54:32;7.53;;;4.05;;
22223;SDS011;11281;52.194;21.006;2023-06-22T21:58:34;5.60;;;3.58;;
22223;SDS011;11281;52.194;21.006;2023-06-22T22:07:35;6.07;;;4.43;;
22223;SDS011;11281;52.194;21.006;2023-06-22T22:11:39;7.55;;;4.10;;
22223;SDS011;11281;52.194;21.006;2023-06-22T22:15:40;5.60;;;3.58;;
22223;SDS011;11281;52.194;21.006;2023-06-22T22:19:42;7.05;;;3.85;;
22223;SDS011;11281;52.194;21.006;2023-06-22T22:23:43;4.72;;;3.85;;
22223;SDS011;11281;52.194;21.006;2023-06-22T22:27:45;6.68;;;3.90;;
22223;SDS011;11281;52.194;21.006;2023-06-22T22:31:47;4.70;;;3.40;;
22223;SDS011;11281;52.194;21.006;2023-06-22T22:35:49;6.03;;;4.00;;
22223;SDS011;11281;52.194;21.006;2023-06-22T22:39:51;6.00;;;3.83;;
22223;SDS011;11281;52.194;21.006;2023-06-22T22:43:56;10.43;;;4.10;;
22223;SDS011;11281;52.194;21.006;2023-06-22T22:47:59;6.07;;;4.00;;
22223;SDS011;11281;52.194;21.006;2023-06-22T22:52:01;5.35;;;3.45;;
22223;SDS011;11281;52.194;21.006;2023-06-22T22:56:05;6.95;;;3.92;;
22223;SDS011;11281;52.194;21.006;2023-06-22T23:00:07;4.68;;;3.50;;
22223;SDS011;11281;52.194;21.006;2023-06-22T23:04:13;7.35;;;4.25;;
22223;SDS011;11281;52.194;21.006;2023-06-22T23:08:18;5.82;;;3.95;;
22223;SDS011;11281;52.194;21.006;2023-06-22T23:12:22;7.70;;;3.72;;
22223;SDS011;11281;52.194;21.006;2023-06-22T23:16:28;4.68;;;3.30;;
22223;SDS011;11281;52.194;21.006;2023-06-22T23:20:30;6.85;;;3.33;;
22223;SDS011;11281;52.194;21.006;2023-06-22T23:24:32;9.98;;;3.95;;
22223;SDS011;11281;52.194;21.006;2023-06-22T23:28:34;5.93;;;3.72;;
22223;SDS011;11281;52.194;21.006;2023-06-22T23:32:36;7.38;;;3.72;;
22223;SDS011;11281;52.194;21.006;2023-06-22T23:36:39;7.15;;;4.13;;
22223;SDS011;11281;52.194;21.006;2023-06-22T23:40:41;5.65;;;4.00;;
22223;SDS011;11281;52.194;21.006;2023-06-22T23:44:42;5.43;;;3.50;;
22223;SDS011;11281;52.194;21.006;2023-06-22T23:48:44;5.10;;;3.40;;
22223;SDS011;11281;52.194;21.006;2023-06-22T23:52:46;7.22;;;3.97;;
22223;SDS011;11281;52.194;21.006;2023-06-22T23:56:51;9.18;;;3.83;;
